createdAt,value
2022-11-23T00:00:11.169Z,2.83
2022-11-23T00:02:38.691Z,2.53
2022-11-23T00:05:08.498Z,2.60
2022-11-23T00:07:36.008Z,2.65
2022-11-23T00:10:03.500Z,2.58
2022-11-23T00:12:30.963Z,2.33
2022-11-23T00:14:59.796Z,2.40
2022-11-23T00:17:27.233Z,2.30
2022-11-23T00:19:54.698Z,2.20
2022-11-23T00:22:22.208Z,2.40
2022-11-23T00:24:49.672Z,2.22
2022-11-23T00:27:17.207Z,2.22
2022-11-23T00:29:44.685Z,2.10
2022-11-23T00:32:13.469Z,2.13
2022-11-23T00:34:41.367Z,2.42
2022-11-23T00:37:08.947Z,2.47
2022-11-23T00:41:55.569Z,2.10
2022-11-23T00:44:23.041Z,2.08
2022-11-23T00:46:50.506Z,2.38
2022-11-23T00:49:19.544Z,2.00
2022-11-23T00:51:47.009Z,2.20
2022-11-23T00:54:14.498Z,2.20
2022-11-23T00:56:41.992Z,2.10
2022-11-23T00:59:10.177Z,2.33
2022-11-23T01:01:37.791Z,1.90
2022-11-23T01:04:06.456Z,2.10
2022-11-23T01:06:36.118Z,2.30
2022-11-23T01:09:05.202Z,2.03
2022-11-23T01:11:32.885Z,1.83
2022-11-23T01:14:00.351Z,2.00
2022-11-23T01:16:29.711Z,2.05
2022-11-23T01:18:57.815Z,2.00
2022-11-23T01:21:25.846Z,1.90
2022-11-23T01:23:54.648Z,1.95
2022-11-23T01:26:22.117Z,2.03
2022-11-23T01:28:49.596Z,1.80
2022-11-23T01:31:18.728Z,1.88
2022-11-23T01:33:46.302Z,1.95
2022-11-23T01:36:14.206Z,1.70
2022-11-23T01:38:41.682Z,1.83
2022-11-23T01:41:13.006Z,2.00
2022-11-23T01:43:41.048Z,1.85
2022-11-23T01:46:08.696Z,1.85
2022-11-23T01:48:37.960Z,1.70
2022-11-23T01:51:06.452Z,1.73
2022-11-23T01:53:33.944Z,2.05
2022-11-23T01:56:02.567Z,1.75
2022-11-23T01:58:32.921Z,2.08
2022-11-23T02:01:00.456Z,2.00
2022-11-23T02:03:28.165Z,2.10
2022-11-23T02:05:59.184Z,1.80
2022-11-23T02:08:26.736Z,1.70
2022-11-23T02:10:54.309Z,1.70
2022-11-23T02:13:21.785Z,1.63
2022-11-23T02:15:50.595Z,1.70
2022-11-23T02:18:20.296Z,1.67
2022-11-23T02:20:47.809Z,1.70
2022-11-23T02:23:24.001Z,1.63
2022-11-23T02:25:58.457Z,1.88
2022-11-23T02:28:29.632Z,1.85
2022-11-23T02:30:57.061Z,1.70
2022-11-23T02:33:25.349Z,1.80
2022-11-23T02:35:53.450Z,1.83
2022-11-23T02:38:20.974Z,1.80
2022-11-23T02:40:48.516Z,1.95
2022-11-23T02:43:17.271Z,1.67
2022-11-23T02:45:46.796Z,1.60
2022-11-23T02:48:14.225Z,1.60
2022-11-23T02:50:41.654Z,1.90
2022-11-23T02:53:12.800Z,1.90
2022-11-23T02:55:40.256Z,1.80
2022-11-23T02:58:07.846Z,1.55
2022-11-23T03:00:36.659Z,1.98
2022-11-23T03:03:04.330Z,1.92
2022-11-23T03:05:31.784Z,1.50
2022-11-23T03:07:59.218Z,1.58
2022-11-23T03:10:27.467Z,1.80
2022-11-23T03:12:56.237Z,1.77
2022-11-23T03:15:23.818Z,1.75
2022-11-23T03:17:52.631Z,1.85
2022-11-23T03:20:20.308Z,1.50
2022-11-23T03:22:47.742Z,1.88
2022-11-23T03:25:15.229Z,1.65
2022-11-23T03:27:42.769Z,1.80
2022-11-23T03:30:10.831Z,1.42
2022-11-23T03:32:38.259Z,1.77
2022-11-23T03:35:08.638Z,1.75
2022-11-23T03:37:36.075Z,1.80
2022-11-23T03:40:03.605Z,1.60
2022-11-23T03:42:31.061Z,1.70
2022-11-23T03:44:58.518Z,1.60
2022-11-23T03:47:25.971Z,1.80
2022-11-23T03:49:53.419Z,1.70
2022-11-23T03:52:22.193Z,1.40
2022-11-23T03:54:49.681Z,1.73
2022-11-23T03:57:17.185Z,1.50
2022-11-23T03:59:44.704Z,1.50
2022-11-23T04:02:12.177Z,1.70
2022-11-23T04:04:39.636Z,1.80
2022-11-23T04:07:07.181Z,1.67
2022-11-23T04:09:35.984Z,1.58
2022-11-23T04:12:03.436Z,1.90
2022-11-23T04:14:30.899Z,1.65
2022-11-23T04:16:58.441Z,1.40
2022-11-23T04:19:25.921Z,1.63
2022-11-23T04:21:53.373Z,1.85
2022-11-23T04:24:20.820Z,2.00
2022-11-23T04:26:49.613Z,1.85
2022-11-23T04:29:17.083Z,1.70
2022-11-23T04:31:44.510Z,1.60
2022-11-23T04:34:12.024Z,1.83
2022-11-23T04:36:39.460Z,1.63
2022-11-23T04:39:07.339Z,1.63
2022-11-23T04:41:34.797Z,1.50
2022-11-23T04:44:03.809Z,1.70
2022-11-23T04:46:31.234Z,1.45
2022-11-23T04:48:58.699Z,1.80
2022-11-23T04:51:26.171Z,1.50
2022-11-23T04:53:53.627Z,2.00
2022-11-23T04:56:21.062Z,1.70
2022-11-23T04:58:48.507Z,1.60
2022-11-23T05:01:17.366Z,1.50
2022-11-23T05:03:44.890Z,1.70
2022-11-23T05:06:12.386Z,1.63
2022-11-23T05:08:39.863Z,1.80
2022-11-23T05:11:07.291Z,1.70
2022-11-23T05:13:34.744Z,1.67
2022-11-23T05:16:02.192Z,1.63
2022-11-23T05:18:30.956Z,1.70
2022-11-23T05:20:58.380Z,1.60
2022-11-23T05:23:25.813Z,1.70
2022-11-23T05:25:53.259Z,1.45
2022-11-23T05:31:09.086Z,1.70
2022-11-23T05:33:37.872Z,1.60
2022-11-23T05:36:05.916Z,1.38
2022-11-23T05:38:33.368Z,1.58
2022-11-23T05:41:00.836Z,1.45
2022-11-23T05:43:28.313Z,1.90
2022-11-23T05:45:55.787Z,1.55
2022-11-23T05:48:23.237Z,1.80
2022-11-23T05:50:52.386Z,1.65
2022-11-23T05:53:19.826Z,1.42
2022-11-23T05:55:47.327Z,1.50
2022-11-23T05:58:14.824Z,1.25
2022-11-23T06:00:42.312Z,1.50
2022-11-23T06:03:09.761Z,1.50
2022-11-23T06:05:37.227Z,1.90
2022-11-23T06:08:06.112Z,1.80
2022-11-23T06:10:33.588Z,1.95
2022-11-23T06:13:03.682Z,2.00
2022-11-23T06:18:00.561Z,1.48
2022-11-23T06:20:28.292Z,2.00
2022-11-23T06:22:55.872Z,1.75
2022-11-23T06:25:24.664Z,1.83
2022-11-23T06:27:55.825Z,1.55
2022-11-23T06:30:23.288Z,1.70
2022-11-23T06:32:50.766Z,1.60
2022-11-23T06:35:18.220Z,1.70
2022-11-23T06:37:45.717Z,1.70
2022-11-23T06:40:13.300Z,1.70
2022-11-23T06:42:42.078Z,1.98
2022-11-23T06:45:10.473Z,1.63
2022-11-23T06:47:37.949Z,1.65
2022-11-23T06:50:06.424Z,1.58
2022-11-23T06:52:34.032Z,1.67
2022-11-23T06:55:01.547Z,1.92
2022-11-23T06:57:28.986Z,1.92
2022-11-23T06:59:57.774Z,1.90
2022-11-23T07:02:25.276Z,2.20
2022-11-23T07:04:53.010Z,2.30
2022-11-23T07:07:20.569Z,2.58
2022-11-23T07:09:48.072Z,3.22
2022-11-23T07:12:15.564Z,2.95
2022-11-23T07:14:43.024Z,2.60
2022-11-23T07:17:14.920Z,3.00
2022-11-23T07:19:44.845Z,2.42
2022-11-23T07:22:12.286Z,2.25
2022-11-23T07:24:45.290Z,2.55
2022-11-23T07:27:14.108Z,2.00
2022-11-23T07:29:41.608Z,2.70
2022-11-23T07:32:09.103Z,2.15
2022-11-23T07:34:37.931Z,2.67
2022-11-23T07:37:05.457Z,2.47
2022-11-23T07:39:55.938Z,2.50
2022-11-23T07:42:41.537Z,2.40
2022-11-23T07:45:09.204Z,2.30
2022-11-23T07:47:36.628Z,2.25
2022-11-23T07:50:06.477Z,2.35
2022-11-23T07:52:35.622Z,2.38
2022-11-23T07:55:03.077Z,2.65
2022-11-23T07:57:30.489Z,2.40
2022-11-23T07:59:57.934Z,2.50
2022-11-23T08:02:25.516Z,2.97
2022-11-23T08:04:53.031Z,2.78
2022-11-23T08:07:21.817Z,2.55
2022-11-23T08:09:49.297Z,2.90
2022-11-23T08:12:16.732Z,2.95
2022-11-23T08:14:44.156Z,3.78
2022-11-23T08:17:11.607Z,3.55
2022-11-23T08:19:39.070Z,3.10
2022-11-23T08:22:06.505Z,3.40
2022-11-23T08:24:35.563Z,3.15
2022-11-23T08:27:03.151Z,2.93
2022-11-23T08:29:30.683Z,2.50
2022-11-23T08:31:58.112Z,2.72
2022-11-23T08:34:25.748Z,2.67
2022-11-23T08:36:53.189Z,3.08
2022-11-23T08:39:20.725Z,2.78
2022-11-23T08:41:49.499Z,2.75
2022-11-23T08:44:16.958Z,2.33
2022-11-23T08:46:44.411Z,3.40
2022-11-23T08:49:11.838Z,3.67
2022-11-23T08:51:39.289Z,3.30
2022-11-23T08:54:06.768Z,3.30
2022-11-23T08:56:34.307Z,3.88
2022-11-23T08:59:03.158Z,3.30
2022-11-23T09:01:30.669Z,3.33
2022-11-23T09:03:58.153Z,3.38
2022-11-23T09:06:29.015Z,3.80
2022-11-23T09:08:57.009Z,3.70
2022-11-23T09:11:26.174Z,3.65
2022-11-23T09:13:53.605Z,4.25
2022-11-23T09:16:22.373Z,4.65
2022-11-23T09:18:50.020Z,4.97
2022-11-23T09:21:17.459Z,5.18
2022-11-23T09:23:44.926Z,5.00
2022-11-23T09:26:12.441Z,4.30
2022-11-23T09:28:44.551Z,4.65
2022-11-23T09:31:12.461Z,4.50
2022-11-23T09:33:41.245Z,4.65
2022-11-23T09:36:09.518Z,4.45
2022-11-23T09:38:56.734Z,4.40
2022-11-23T09:41:35.702Z,4.22
2022-11-23T09:44:03.500Z,4.28
2022-11-23T09:46:37.147Z,4.05
2022-11-23T09:49:13.658Z,4.30
2022-11-23T09:51:41.343Z,4.38
2022-11-23T09:54:15.019Z,3.65
2022-11-23T09:56:42.535Z,3.83
2022-11-23T09:59:13.418Z,3.55
2022-11-23T10:01:41.417Z,3.40
2022-11-23T10:04:12.042Z,3.65
2022-11-23T10:06:40.708Z,3.75
2022-11-23T10:09:18.749Z,3.80
2022-11-23T10:12:09.900Z,3.40
2022-11-23T10:14:44.829Z,3.40
2022-11-23T10:17:16.880Z,3.42
2022-11-23T10:19:55.523Z,3.45
2022-11-23T10:22:24.796Z,3.47
2022-11-23T10:24:53.138Z,3.40
2022-11-23T10:27:21.514Z,2.95
2022-11-23T10:29:49.188Z,3.10
2022-11-23T10:32:23.205Z,3.20
2022-11-23T10:34:55.691Z,3.88
2022-11-23T10:37:23.198Z,2.88
2022-11-23T10:39:50.634Z,3.35
2022-11-23T10:42:21.383Z,2.80
2022-11-23T10:44:48.823Z,2.88
2022-11-23T10:47:33.924Z,2.92
2022-11-23T10:50:02.672Z,2.78
2022-11-23T10:52:31.041Z,2.88
2022-11-23T10:54:59.193Z,2.60
2022-11-23T10:57:31.763Z,2.72
2022-11-23T11:00:00.222Z,2.53
2022-11-23T11:02:27.986Z,3.10
2022-11-23T11:05:16.486Z,2.50
2022-11-23T11:07:43.961Z,2.10
2022-11-23T11:10:33.505Z,2.65
2022-11-23T11:13:01.008Z,2.13
2022-11-23T11:15:28.496Z,2.30
2022-11-23T11:17:56.791Z,2.60
2022-11-23T11:20:33.035Z,2.10
2022-11-23T11:23:01.287Z,2.88
2022-11-23T11:25:30.710Z,2.35
2022-11-23T11:27:58.345Z,2.38
2022-11-23T11:30:26.316Z,2.40
2022-11-23T11:32:55.337Z,2.03
2022-11-23T11:35:26.356Z,2.45
2022-11-23T11:37:55.581Z,2.50
2022-11-23T11:40:24.949Z,2.23
2022-11-23T11:42:54.408Z,2.45
2022-11-23T11:45:24.668Z,2.40
2022-11-23T11:47:55.692Z,2.08
2022-11-23T11:50:31.433Z,2.05
2022-11-23T11:53:03.123Z,2.00
2022-11-23T11:55:34.267Z,2.03
2022-11-23T11:58:03.959Z,2.00
2022-11-23T12:00:31.509Z,2.47
2022-11-23T12:03:05.302Z,2.03
2022-11-23T12:05:38.742Z,2.22
2022-11-23T12:08:09.258Z,2.38
2022-11-23T12:10:39.502Z,2.28
2022-11-23T12:13:07.022Z,2.90
2022-11-23T12:15:52.059Z,2.35
2022-11-23T12:18:47.057Z,2.40
2022-11-23T12:21:32.531Z,2.65
2022-11-23T12:24:04.117Z,2.42
2022-11-23T12:26:37.113Z,2.42
2022-11-23T12:29:25.056Z,2.30
2022-11-23T12:31:55.055Z,2.20
2022-11-23T12:34:31.062Z,3.60
2022-11-23T12:37:06.089Z,2.55
2022-11-23T12:39:50.213Z,2.88
2022-11-23T12:42:20.024Z,3.00
2022-11-23T12:44:56.286Z,3.10
2022-11-23T12:47:29.995Z,2.70
2022-11-23T12:50:00.521Z,3.22
2022-11-23T12:52:35.489Z,2.33
2022-11-23T12:55:06.881Z,2.63
2022-11-23T12:57:36.987Z,2.53
2022-11-23T13:03:00.007Z,3.00
2022-11-23T13:06:04.380Z,2.67
2022-11-23T13:08:43.676Z,2.63
2022-11-23T13:11:18.540Z,2.67
2022-11-23T13:13:59.076Z,2.60
2022-11-23T13:16:38.240Z,2.30
2022-11-23T13:19:16.908Z,2.17
2022-11-23T13:21:44.665Z,2.95
2022-11-23T13:24:30.407Z,2.55
2022-11-23T13:27:41.582Z,2.42
2022-11-23T13:30:17.277Z,2.28
2022-11-23T13:32:54.809Z,2.55
2022-11-23T13:35:52.500Z,2.47
2022-11-23T13:38:25.304Z,2.40
2022-11-23T13:40:54.095Z,2.28
2022-11-23T13:43:22.934Z,2.33
2022-11-23T13:46:10.953Z,2.33
2022-11-23T13:48:56.231Z,2.38
2022-11-23T13:51:25.999Z,2.25
2022-11-23T13:53:55.785Z,2.17
2022-11-23T13:56:33.104Z,2.47
2022-11-23T13:59:20.696Z,1.92
2022-11-23T14:02:19.078Z,2.20
2022-11-23T14:04:47.189Z,1.85
2022-11-23T14:07:16.879Z,2.15
2022-11-23T14:09:45.895Z,1.85
2022-11-23T14:12:22.303Z,2.05
2022-11-23T14:14:52.868Z,2.35
2022-11-23T14:17:56.959Z,2.20
2022-11-23T14:20:35.642Z,1.90
2022-11-23T14:23:13.305Z,2.17
2022-11-23T14:25:45.241Z,2.30
2022-11-23T14:28:22.067Z,2.50
2022-11-23T14:30:57.948Z,2.63
2022-11-23T14:33:30.624Z,2.22
2022-11-23T14:36:04.410Z,2.50
2022-11-23T14:39:01.721Z,2.33
2022-11-23T14:41:30.225Z,2.25
2022-11-23T14:43:58.992Z,2.75
2022-11-23T14:46:26.528Z,2.20
2022-11-23T14:48:57.616Z,2.50
2022-11-23T14:51:26.406Z,2.60
2022-11-23T14:53:55.000Z,2.58
2022-11-23T14:56:32.073Z,2.58
2022-11-23T14:59:02.214Z,2.20
2022-11-23T15:03:58.195Z,2.75
2022-11-23T15:06:26.932Z,2.42
2022-11-23T15:08:58.796Z,2.40
2022-11-23T15:11:27.338Z,2.35
2022-11-23T15:13:57.653Z,2.60
2022-11-23T15:16:26.587Z,3.45
2022-11-23T15:18:54.067Z,2.95
2022-11-23T15:21:26.816Z,3.00
2022-11-23T15:23:56.919Z,3.30
2022-11-23T15:26:46.716Z,2.65
2022-11-23T15:29:31.308Z,3.20
2022-11-23T15:32:29.369Z,3.08
2022-11-23T15:34:47.765Z,3.40
2022-11-23T15:37:15.382Z,3.50
2022-11-23T15:39:42.842Z,2.95
2022-11-23T15:42:10.579Z,3.70
2022-11-23T15:44:39.234Z,4.00
2022-11-23T15:47:08.189Z,3.58
2022-11-23T15:49:37.734Z,3.13
2022-11-23T15:52:05.494Z,3.60
2022-11-23T15:54:35.214Z,3.38
2022-11-23T15:57:02.879Z,3.92
2022-11-23T15:59:32.591Z,3.40
2022-11-23T16:02:00.442Z,3.28
2022-11-23T16:04:31.335Z,2.85
2022-11-23T16:06:59.007Z,2.83
2022-11-23T16:09:53.998Z,3.03
2022-11-23T16:12:26.732Z,2.97
2022-11-23T16:14:54.599Z,3.33
2022-11-23T16:17:23.626Z,3.25
2022-11-23T16:19:52.805Z,2.78
2022-11-23T16:22:23.387Z,3.22
2022-11-23T16:24:51.501Z,2.97
2022-11-23T16:27:23.613Z,2.97
2022-11-23T16:29:51.454Z,3.13
2022-11-23T16:32:26.970Z,3.88
2022-11-23T16:34:56.133Z,3.80
2022-11-23T16:37:25.561Z,3.00
2022-11-23T16:39:52.983Z,4.03
2022-11-23T16:42:20.439Z,3.65
2022-11-23T16:44:47.880Z,4.10
2022-11-23T16:47:25.594Z,3.83
2022-11-23T16:49:53.125Z,3.90
2022-11-23T16:52:22.609Z,3.92
2022-11-23T16:54:50.096Z,3.45
2022-11-23T16:57:29.726Z,3.88
2022-11-23T16:59:57.332Z,3.95
2022-11-23T17:02:24.880Z,3.55
2022-11-23T17:04:52.399Z,3.58
2022-11-23T17:07:19.975Z,3.45
2022-11-23T17:09:48.815Z,3.92
2022-11-23T17:12:17.781Z,3.80
2022-11-23T17:14:46.471Z,3.28
2022-11-23T17:17:15.545Z,3.97
2022-11-23T17:19:46.964Z,3.60
2022-11-23T17:22:14.511Z,4.03
2022-11-23T17:24:42.477Z,3.97
2022-11-23T17:27:12.887Z,3.53
2022-11-23T17:29:42.242Z,4.20
2022-11-23T17:32:11.350Z,4.07
2022-11-23T17:34:38.821Z,3.60
2022-11-23T17:37:06.322Z,3.75
2022-11-23T17:39:33.939Z,3.47
2022-11-23T17:42:04.819Z,3.78
2022-11-23T17:44:33.913Z,4.00
2022-11-23T17:47:01.371Z,4.55
2022-11-23T17:49:28.921Z,5.20
2022-11-23T17:51:56.380Z,5.50
2022-11-23T17:54:23.865Z,5.68
2022-11-23T17:56:51.478Z,5.65
2022-11-23T17:59:18.940Z,6.20
2022-11-23T18:01:48.014Z,6.88
2022-11-23T18:04:15.492Z,5.75
2022-11-23T18:06:42.958Z,6.20
2022-11-23T18:09:11.920Z,6.30
2022-11-23T18:11:39.372Z,6.30
2022-11-23T18:14:07.163Z,6.07
2022-11-23T18:16:34.588Z,5.43
2022-11-23T18:19:03.360Z,5.82
2022-11-23T18:21:30.832Z,5.80
2022-11-23T18:24:04.116Z,5.70
2022-11-23T18:26:32.124Z,5.93
2022-11-23T18:28:59.565Z,5.13
2022-11-23T18:31:27.104Z,5.25
2022-11-23T18:33:54.618Z,5.65
2022-11-23T18:36:23.407Z,5.70
2022-11-23T18:38:50.870Z,5.20
2022-11-23T18:41:18.319Z,5.05
2022-11-23T18:43:45.939Z,5.80
2022-11-23T18:46:18.804Z,4.53
2022-11-23T18:48:46.408Z,4.97
2022-11-23T18:51:13.841Z,4.72
2022-11-23T18:53:42.633Z,5.00
2022-11-23T18:56:10.218Z,5.05
2022-11-23T18:58:38.631Z,4.30
2022-11-23T19:01:12.208Z,4.90
2022-11-23T19:03:40.460Z,5.15
2022-11-23T19:06:08.279Z,4.57
2022-11-23T19:08:39.505Z,4.45
2022-11-23T19:11:08.625Z,4.80
2022-11-23T19:13:36.868Z,4.78
2022-11-23T19:16:09.129Z,5.10
2022-11-23T19:18:36.613Z,4.50
2022-11-23T19:21:12.578Z,4.28
2022-11-23T19:23:40.024Z,4.07
2022-11-23T19:26:08.897Z,4.53
2022-11-23T19:28:36.386Z,4.65
2022-11-23T19:31:11.400Z,4.18
2022-11-23T19:33:38.837Z,4.05
2022-11-23T19:36:07.232Z,4.45
2022-11-23T19:38:34.753Z,4.30
2022-11-23T19:41:02.195Z,4.30
2022-11-23T19:43:30.975Z,3.97
2022-11-23T19:45:58.784Z,4.50
2022-11-23T19:48:26.392Z,4.20
2022-11-23T19:50:57.380Z,4.25
2022-11-23T19:53:30.524Z,4.10
2022-11-23T19:56:01.398Z,4.60
2022-11-23T19:58:30.874Z,3.92
2022-11-23T20:01:01.119Z,4.18
2022-11-23T20:03:28.560Z,4.30
2022-11-23T20:05:56.989Z,4.20
2022-11-23T20:08:24.497Z,3.67
2022-11-23T20:10:52.005Z,3.97
2022-11-23T20:13:19.473Z,3.65
2022-11-23T20:15:48.399Z,3.70
2022-11-23T20:18:17.561Z,3.88
2022-11-23T20:20:45.704Z,3.95
2022-11-23T20:23:14.636Z,3.72
2022-11-23T20:25:42.243Z,3.60
2022-11-23T20:28:12.177Z,3.33
2022-11-23T20:30:39.631Z,3.80
2022-11-23T20:33:07.120Z,3.15
2022-11-23T20:35:35.936Z,2.97
2022-11-23T20:38:03.405Z,3.67
2022-11-23T20:40:30.845Z,3.40
2022-11-23T20:42:58.389Z,3.35
2022-11-23T20:45:26.155Z,3.33
2022-11-23T20:47:54.688Z,3.42
2022-11-23T20:50:25.049Z,3.25
2022-11-23T20:52:54.044Z,3.08
2022-11-23T20:55:23.257Z,2.95
2022-11-23T20:57:51.520Z,2.90
2022-11-23T21:00:19.716Z,2.83
2022-11-23T21:02:49.524Z,2.72
2022-11-23T21:05:17.194Z,2.72
2022-11-23T21:07:44.765Z,2.95
2022-11-23T21:10:34.121Z,2.85
2022-11-23T21:13:18.964Z,1.97
2022-11-23T21:15:46.455Z,2.75
2022-11-23T21:18:14.129Z,2.50
2022-11-23T21:20:43.156Z,2.55
2022-11-23T21:23:10.746Z,2.63
2022-11-23T21:25:39.514Z,2.47
2022-11-23T21:28:06.970Z,2.72
2022-11-23T21:30:36.597Z,2.85
2022-11-23T21:33:04.101Z,2.70
2022-11-23T21:35:31.551Z,2.53
2022-11-23T21:37:59.278Z,3.00
2022-11-23T21:40:26.687Z,2.50
2022-11-23T21:42:55.677Z,2.70
2022-11-23T21:45:23.119Z,2.25
2022-11-23T21:47:50.643Z,2.30
2022-11-23T21:50:18.161Z,2.25
2022-11-23T21:52:45.594Z,2.83
2022-11-23T21:55:13.052Z,2.28
2022-11-23T21:57:40.477Z,2.33
2022-11-23T22:00:10.925Z,2.35
2022-11-23T22:02:38.777Z,2.60
2022-11-23T22:05:06.464Z,2.50
2022-11-23T22:07:34.079Z,1.90
2022-11-23T22:10:01.640Z,2.88
2022-11-23T22:12:29.082Z,2.90
2022-11-23T22:14:56.630Z,3.10
2022-11-23T22:17:25.363Z,2.90
2022-11-23T22:19:52.783Z,3.03
2022-11-23T22:22:20.242Z,2.97
2022-11-23T22:24:47.661Z,2.88
2022-11-23T22:27:15.095Z,3.05
2022-11-23T22:29:42.517Z,2.90
2022-11-23T22:32:09.947Z,2.90
2022-11-23T22:34:39.810Z,2.90
2022-11-23T22:37:10.582Z,3.13
2022-11-23T22:39:38.543Z,2.50
2022-11-23T22:42:06.116Z,3.20
2022-11-23T22:44:34.024Z,2.65
2022-11-23T22:47:01.683Z,2.60
2022-11-23T22:49:29.137Z,2.70
2022-11-23T22:51:57.916Z,2.78
2022-11-23T22:54:25.393Z,3.03
2022-11-23T22:56:52.852Z,3.08
2022-11-23T22:59:20.297Z,2.90
2022-11-23T23:01:47.721Z,2.40
2022-11-23T23:04:15.181Z,2.60
2022-11-23T23:06:42.657Z,2.50
2022-11-23T23:09:11.733Z,2.58
2022-11-23T23:11:39.677Z,2.75
2022-11-23T23:14:07.165Z,2.50
2022-11-23T23:16:34.926Z,2.47
2022-11-23T23:19:03.351Z,2.40
2022-11-23T23:21:30.816Z,2.40
2022-11-23T23:23:59.291Z,2.05
2022-11-23T23:26:28.386Z,2.40
2022-11-23T23:28:56.441Z,2.60
2022-11-23T23:31:23.956Z,2.28
2022-11-23T23:33:53.392Z,2.40
2022-11-23T23:36:21.713Z,2.20
2022-11-23T23:38:49.252Z,2.10
2022-11-23T23:41:16.663Z,2.17
2022-11-23T23:43:47.813Z,2.30
2022-11-23T23:46:15.297Z,2.33
2022-11-23T23:48:42.816Z,1.95
2022-11-23T23:51:11.706Z,2.00
2022-11-23T23:53:39.349Z,2.10
2022-11-23T23:56:08.478Z,2.10
2022-11-23T23:58:36.018Z,2.10
